sensor_id;sensor_type;location;lat;lon;timestamp;temperature;humidity
18091;DHT22;9172;49.948;9.208;2023-04-19T00:00:06;10.10;99.90
18091;DHT22;9172;49.948;9.208;2023-04-19T00:02:35;10.10;99.90
18091;DHT22;9172;49.948;9.208;2023-04-19T00:05:04;10.10;99.90
18091;DHT22;9172;49.948;9.208;2023-04-19T00:07:33;10.10;99.90
18091;DHT22;9172;49.948;9.208;2023-04-19T00:10:04;10.10;99.90
18091;DHT22;9172;49.948;9.208;2023-04-19T00:12:33;10.10;99.90
18091;DHT22;9172;49.948;9.208;2023-04-19T00:15:03;10.10;99.90
18091;DHT22;9172;49.948;9.208;2023-04-19T00:17:32;10.10;99.90
18091;DHT22;9172;49.948;9.208;2023-04-19T00:20:00;10.10;99.90
18091;DHT22;9172;49.948;9.208;2023-04-19T00:22:29;10.00;99.90
18091;DHT22;9172;49.948;9.208;2023-04-19T00:24:59;9.90;99.90
18091;DHT22;9172;49.948;9.208;2023-04-19T00:27:28;10.00;99.90
18091;DHT22;9172;49.948;9.208;2023-04-19T00:29:57;9.90;99.90
18091;DHT22;9172;49.948;9.208;2023-04-19T00:32:26;9.90;99.90
18091;DHT22;9172;49.948;9.208;2023-04-19T00:34:55;10.00;99.90
18091;DHT22;9172;49.948;9.208;2023-04-19T00:37:24;10.00;99.90
18091;DHT22;9172;49.948;9.208;2023-04-19T00:39:54;9.90;99.90
18091;DHT22;9172;49.948;9.208;2023-04-19T00:42:24;9.90;99.90
18091;DHT22;9172;49.948;9.208;2023-04-19T00:44:52;9.90;99.90
18091;DHT22;9172;49.948;9.208;2023-04-19T00:47:21;9.90;99.90
18091;DHT22;9172;49.948;9.208;2023-04-19T00:49:50;9.90;99.90
18091;DHT22;9172;49.948;9.208;2023-04-19T00:52:21;9.90;99.90
18091;DHT22;9172;49.948;9.208;2023-04-19T00:54:49;9.90;99.90
18091;DHT22;9172;49.948;9.208;2023-04-19T00:57:19;9.90;99.90
18091;DHT22;9172;49.948;9.208;2023-04-19T00:59:49;9.90;99.90
18091;DHT22;9172;49.948;9.208;2023-04-19T01:02:18;9.90;99.90
18091;DHT22;9172;49.948;9.208;2023-04-19T01:04:48;9.90;99.90
18091;DHT22;9172;49.948;9.208;2023-04-19T01:07:19;9.90;99.90
18091;DHT22;9172;49.948;9.208;2023-04-19T01:09:49;9.90;99.90
18091;DHT22;9172;49.948;9.208;2023-04-19T01:12:19;9.90;99.90
18091;DHT22;9172;49.948;9.208;2023-04-19T01:14:48;9.90;99.90
18091;DHT22;9172;49.948;9.208;2023-04-19T01:17:18;9.90;99.90
18091;DHT22;9172;49.948;9.208;2023-04-19T01:19:47;9.90;99.90
18091;DHT22;9172;49.948;9.208;2023-04-19T01:22:17;9.90;99.90
18091;DHT22;9172;49.948;9.208;2023-04-19T01:24:46;9.80;99.90
18091;DHT22;9172;49.948;9.208;2023-04-19T01:27:15;9.80;99.90
18091;DHT22;9172;49.948;9.208;2023-04-19T01:29:45;9.80;99.90
18091;DHT22;9172;49.948;9.208;2023-04-19T01:32:15;9.80;99.90
18091;DHT22;9172;49.948;9.208;2023-04-19T01:34:45;9.80;99.90
18091;DHT22;9172;49.948;9.208;2023-04-19T01:37:13;9.90;99.90
18091;DHT22;9172;49.948;9.208;2023-04-19T01:39:42;9.90;99.90
18091;DHT22;9172;49.948;9.208;2023-04-19T01:42:11;9.90;99.90
18091;DHT22;9172;49.948;9.208;2023-04-19T01:44:40;9.90;99.90
18091;DHT22;9172;49.948;9.208;2023-04-19T01:47:08;9.90;99.90
18091;DHT22;9172;49.948;9.208;2023-04-19T01:49:38;9.90;99.90
18091;DHT22;9172;49.948;9.208;2023-04-19T01:52:07;9.90;99.90
18091;DHT22;9172;49.948;9.208;2023-04-19T01:54:36;9.80;99.90
18091;DHT22;9172;49.948;9.208;2023-04-19T01:57:06;9.90;99.90
18091;DHT22;9172;49.948;9.208;2023-04-19T01:59:35;9.90;99.90
18091;DHT22;9172;49.948;9.208;2023-04-19T02:02:06;9.90;99.90
18091;DHT22;9172;49.948;9.208;2023-04-19T02:04:36;9.90;99.90
18091;DHT22;9172;49.948;9.208;2023-04-19T02:07:05;9.90;99.90
18091;DHT22;9172;49.948;9.208;2023-04-19T02:09:35;9.80;99.90
18091;DHT22;9172;49.948;9.208;2023-04-19T02:12:05;9.90;99.90
18091;DHT22;9172;49.948;9.208;2023-04-19T02:14:35;9.90;99.90
18091;DHT22;9172;49.948;9.208;2023-04-19T02:17:04;9.90;99.90
18091;DHT22;9172;49.948;9.208;2023-04-19T02:19:33;9.90;99.90
18091;DHT22;9172;49.948;9.208;2023-04-19T02:22:02;9.90;99.90
18091;DHT22;9172;49.948;9.208;2023-04-19T02:24:31;9.90;99.90
18091;DHT22;9172;49.948;9.208;2023-04-19T02:27:00;9.90;99.90
18091;DHT22;9172;49.948;9.208;2023-04-19T02:29:29;9.80;99.90
18091;DHT22;9172;49.948;9.208;2023-04-19T02:31:59;9.80;99.90
18091;DHT22;9172;49.948;9.208;2023-04-19T02:34:29;9.80;99.90
18091;DHT22;9172;49.948;9.208;2023-04-19T02:36:57;9.80;99.90
18091;DHT22;9172;49.948;9.208;2023-04-19T02:39:27;9.80;99.90
18091;DHT22;9172;49.948;9.208;2023-04-19T02:41:56;9.70;99.90
18091;DHT22;9172;49.948;9.208;2023-04-19T02:44:25;9.70;99.90
18091;DHT22;9172;49.948;9.208;2023-04-19T02:46:54;9.60;99.90
18091;DHT22;9172;49.948;9.208;2023-04-19T02:49:24;9.60;99.90
18091;DHT22;9172;49.948;9.208;2023-04-19T02:51:53;9.50;99.90
18091;DHT22;9172;49.948;9.208;2023-04-19T02:54:22;9.40;99.90
18091;DHT22;9172;49.948;9.208;2023-04-19T02:56:51;9.40;99.90
18091;DHT22;9172;49.948;9.208;2023-04-19T02:59:20;9.30;99.90
18091;DHT22;9172;49.948;9.208;2023-04-19T03:01:49;9.30;99.90
18091;DHT22;9172;49.948;9.208;2023-04-19T03:04:18;9.30;99.90
18091;DHT22;9172;49.948;9.208;2023-04-19T03:06:46;9.30;99.90
18091;DHT22;9172;49.948;9.208;2023-04-19T03:09:16;9.30;99.90
18091;DHT22;9172;49.948;9.208;2023-04-19T03:11:45;9.30;99.90
18091;DHT22;9172;49.948;9.208;2023-04-19T03:14:16;9.30;99.90
18091;DHT22;9172;49.948;9.208;2023-04-19T03:16:44;9.30;99.90
18091;DHT22;9172;49.948;9.208;2023-04-19T03:19:16;9.30;99.90
18091;DHT22;9172;49.948;9.208;2023-04-19T03:21:45;9.30;99.90
18091;DHT22;9172;49.948;9.208;2023-04-19T03:24:14;9.20;99.90
18091;DHT22;9172;49.948;9.208;2023-04-19T03:26:44;9.20;99.90
18091;DHT22;9172;49.948;9.208;2023-04-19T03:29:13;9.20;99.90
18091;DHT22;9172;49.948;9.208;2023-04-19T03:31:43;9.20;99.90
18091;DHT22;9172;49.948;9.208;2023-04-19T03:34:11;9.20;99.90
18091;DHT22;9172;49.948;9.208;2023-04-19T03:36:41;9.30;99.90
18091;DHT22;9172;49.948;9.208;2023-04-19T03:39:10;9.20;99.90
18091;DHT22;9172;49.948;9.208;2023-04-19T03:41:40;9.20;99.90
18091;DHT22;9172;49.948;9.208;2023-04-19T03:44:08;9.30;99.90
18091;DHT22;9172;49.948;9.208;2023-04-19T03:46:38;9.40;99.90
18091;DHT22;9172;49.948;9.208;2023-04-19T03:49:06;9.40;99.90
18091;DHT22;9172;49.948;9.208;2023-04-19T03:51:36;9.50;99.90
18091;DHT22;9172;49.948;9.208;2023-04-19T03:54:04;9.40;99.90
18091;DHT22;9172;49.948;9.208;2023-04-19T03:56:33;9.40;99.90
18091;DHT22;9172;49.948;9.208;2023-04-19T03:59:02;9.40;99.90
18091;DHT22;9172;49.948;9.208;2023-04-19T04:01:30;9.50;99.90
18091;DHT22;9172;49.948;9.208;2023-04-19T04:03:59;9.50;99.90
18091;DHT22;9172;49.948;9.208;2023-04-19T04:06:28;9.40;99.90
18091;DHT22;9172;49.948;9.208;2023-04-19T04:08:56;9.40;99.90
18091;DHT22;9172;49.948;9.208;2023-04-19T04:11:25;9.50;99.90
18091;DHT22;9172;49.948;9.208;2023-04-19T04:13:54;9.50;99.90
18091;DHT22;9172;49.948;9.208;2023-04-19T04:16:24;9.50;99.90
18091;DHT22;9172;49.948;9.208;2023-04-19T04:18:53;9.50;99.90
18091;DHT22;9172;49.948;9.208;2023-04-19T04:21:23;9.50;99.90
18091;DHT22;9172;49.948;9.208;2023-04-19T04:23:53;9.60;99.90
18091;DHT22;9172;49.948;9.208;2023-04-19T04:26:22;9.60;99.90
18091;DHT22;9172;49.948;9.208;2023-04-19T04:28:51;9.60;99.90
18091;DHT22;9172;49.948;9.208;2023-04-19T04:31:20;9.60;99.90
18091;DHT22;9172;49.948;9.208;2023-04-19T04:33:48;9.60;99.90
18091;DHT22;9172;49.948;9.208;2023-04-19T04:36:19;9.60;99.90
18091;DHT22;9172;49.948;9.208;2023-04-19T04:38:50;9.60;99.90
18091;DHT22;9172;49.948;9.208;2023-04-19T04:41:19;9.60;99.90
18091;DHT22;9172;49.948;9.208;2023-04-19T04:43:47;9.60;99.90
18091;DHT22;9172;49.948;9.208;2023-04-19T04:46:17;9.50;99.90
18091;DHT22;9172;49.948;9.208;2023-04-19T04:48:46;9.60;99.90
18091;DHT22;9172;49.948;9.208;2023-04-19T04:51:15;9.60;99.90
18091;DHT22;9172;49.948;9.208;2023-04-19T04:53:45;9.60;99.90
18091;DHT22;9172;49.948;9.208;2023-04-19T04:56:14;9.60;99.90
18091;DHT22;9172;49.948;9.208;2023-04-19T04:58:43;9.60;99.90
18091;DHT22;9172;49.948;9.208;2023-04-19T05:01:13;9.60;99.90
18091;DHT22;9172;49.948;9.208;2023-04-19T05:03:44;9.60;99.90
18091;DHT22;9172;49.948;9.208;2023-04-19T05:06:13;9.60;99.90
18091;DHT22;9172;49.948;9.208;2023-04-19T05:08:42;9.60;99.90
18091;DHT22;9172;49.948;9.208;2023-04-19T05:11:12;9.60;99.90
18091;DHT22;9172;49.948;9.208;2023-04-19T05:13:42;9.70;99.90
18091;DHT22;9172;49.948;9.208;2023-04-19T05:16:11;9.70;99.90
18091;DHT22;9172;49.948;9.208;2023-04-19T05:18:39;9.70;99.90
18091;DHT22;9172;49.948;9.208;2023-04-19T05:21:08;9.70;99.90
18091;DHT22;9172;49.948;9.208;2023-04-19T05:23:37;9.60;99.90
18091;DHT22;9172;49.948;9.208;2023-04-19T05:26:07;9.60;99.90
18091;DHT22;9172;49.948;9.208;2023-04-19T05:28:38;9.60;99.90
18091;DHT22;9172;49.948;9.208;2023-04-19T05:31:08;9.60;99.90
18091;DHT22;9172;49.948;9.208;2023-04-19T05:33:37;9.60;99.90
18091;DHT22;9172;49.948;9.208;2023-04-19T05:36:06;9.60;99.90
18091;DHT22;9172;49.948;9.208;2023-04-19T05:38:35;9.70;99.90
18091;DHT22;9172;49.948;9.208;2023-04-19T05:41:04;9.60;99.90
18091;DHT22;9172;49.948;9.208;2023-04-19T05:43:34;9.60;99.90
18091;DHT22;9172;49.948;9.208;2023-04-19T05:46:02;9.60;99.90
18091;DHT22;9172;49.948;9.208;2023-04-19T05:48:32;9.60;99.90
18091;DHT22;9172;49.948;9.208;2023-04-19T05:51:00;9.60;99.90
18091;DHT22;9172;49.948;9.208;2023-04-19T05:53:30;9.60;99.90
18091;DHT22;9172;49.948;9.208;2023-04-19T05:55:59;9.60;99.90
18091;DHT22;9172;49.948;9.208;2023-04-19T05:58:28;9.60;99.90
18091;DHT22;9172;49.948;9.208;2023-04-19T06:00:57;9.70;99.90
18091;DHT22;9172;49.948;9.208;2023-04-19T06:03:26;9.70;99.90
18091;DHT22;9172;49.948;9.208;2023-04-19T06:05:55;9.80;99.90
18091;DHT22;9172;49.948;9.208;2023-04-19T06:08:24;9.80;99.90
18091;DHT22;9172;49.948;9.208;2023-04-19T06:10:54;9.80;99.90
18091;DHT22;9172;49.948;9.208;2023-04-19T06:13:24;9.80;99.90
18091;DHT22;9172;49.948;9.208;2023-04-19T06:15:53;9.80;99.90
18091;DHT22;9172;49.948;9.208;2023-04-19T06:18:23;9.80;99.90
18091;DHT22;9172;49.948;9.208;2023-04-19T06:20:52;9.90;99.90
18091;DHT22;9172;49.948;9.208;2023-04-19T06:23:22;9.90;99.90
18091;DHT22;9172;49.948;9.208;2023-04-19T06:25:52;9.90;99.90
18091;DHT22;9172;49.948;9.208;2023-04-19T06:28:21;9.90;99.90
18091;DHT22;9172;49.948;9.208;2023-04-19T06:30:51;9.90;99.90
18091;DHT22;9172;49.948;9.208;2023-04-19T06:33:20;9.90;99.90
18091;DHT22;9172;49.948;9.208;2023-04-19T06:35:48;9.90;99.90
18091;DHT22;9172;49.948;9.208;2023-04-19T06:38:17;9.90;99.90
18091;DHT22;9172;49.948;9.208;2023-04-19T06:40:46;9.90;99.90
18091;DHT22;9172;49.948;9.208;2023-04-19T06:43:15;9.90;99.90
18091;DHT22;9172;49.948;9.208;2023-04-19T06:45:44;9.90;99.90
18091;DHT22;9172;49.948;9.208;2023-04-19T06:48:13;10.00;99.90
18091;DHT22;9172;49.948;9.208;2023-04-19T06:50:42;10.10;99.90
18091;DHT22;9172;49.948;9.208;2023-04-19T06:53:12;10.10;99.90
18091;DHT22;9172;49.948;9.208;2023-04-19T06:55:41;10.10;99.90
18091;DHT22;9172;49.948;9.208;2023-04-19T06:58:09;10.10;99.90
18091;DHT22;9172;49.948;9.208;2023-04-19T07:00:39;10.20;99.90
18091;DHT22;9172;49.948;9.208;2023-04-19T07:03:07;10.20;99.90
18091;DHT22;9172;49.948;9.208;2023-04-19T07:05:38;10.30;99.90
18091;DHT22;9172;49.948;9.208;2023-04-19T07:08:07;10.30;99.90
18091;DHT22;9172;49.948;9.208;2023-04-19T07:10:38;10.40;99.90
18091;DHT22;9172;49.948;9.208;2023-04-19T07:13:06;10.30;99.90
18091;DHT22;9172;49.948;9.208;2023-04-19T07:15:35;10.40;99.90
18091;DHT22;9172;49.948;9.208;2023-04-19T07:18:04;10.40;99.90
18091;DHT22;9172;49.948;9.208;2023-04-19T07:20:34;10.40;99.90
18091;DHT22;9172;49.948;9.208;2023-04-19T07:23:03;10.50;99.90
18091;DHT22;9172;49.948;9.208;2023-04-19T07:25:32;10.40;99.90
18091;DHT22;9172;49.948;9.208;2023-04-19T07:28:01;10.40;99.90
18091;DHT22;9172;49.948;9.208;2023-04-19T07:30:30;10.40;99.90
18091;DHT22;9172;49.948;9.208;2023-04-19T07:32:58;10.40;99.90
18091;DHT22;9172;49.948;9.208;2023-04-19T07:35:28;10.50;99.90
18091;DHT22;9172;49.948;9.208;2023-04-19T07:37:57;10.60;99.90
18091;DHT22;9172;49.948;9.208;2023-04-19T07:40:26;10.60;99.90
18091;DHT22;9172;49.948;9.208;2023-04-19T07:42:56;10.50;99.90
18091;DHT22;9172;49.948;9.208;2023-04-19T07:45:24;10.50;99.90
18091;DHT22;9172;49.948;9.208;2023-04-19T07:47:53;10.50;99.90
18091;DHT22;9172;49.948;9.208;2023-04-19T07:50:23;10.50;99.90
18091;DHT22;9172;49.948;9.208;2023-04-19T07:52:53;10.50;99.90
18091;DHT22;9172;49.948;9.208;2023-04-19T07:55:23;10.50;99.90
18091;DHT22;9172;49.948;9.208;2023-04-19T07:57:51;10.50;99.90
18091;DHT22;9172;49.948;9.208;2023-04-19T08:00:20;10.50;99.90
18091;DHT22;9172;49.948;9.208;2023-04-19T08:02:49;10.60;99.90
18091;DHT22;9172;49.948;9.208;2023-04-19T08:05:18;10.60;99.90
18091;DHT22;9172;49.948;9.208;2023-04-19T08:07:47;10.50;99.90
18091;DHT22;9172;49.948;9.208;2023-04-19T08:10:16;10.50;99.90
18091;DHT22;9172;49.948;9.208;2023-04-19T08:12:46;10.50;99.90
18091;DHT22;9172;49.948;9.208;2023-04-19T08:15:16;10.50;99.90
18091;DHT22;9172;49.948;9.208;2023-04-19T08:17:44;10.50;99.90
18091;DHT22;9172;49.948;9.208;2023-04-19T08:20:13;10.50;99.90
18091;DHT22;9172;49.948;9.208;2023-04-19T08:22:42;10.50;99.90
18091;DHT22;9172;49.948;9.208;2023-04-19T08:25:11;10.50;99.90
18091;DHT22;9172;49.948;9.208;2023-04-19T08:27:40;10.60;99.90
18091;DHT22;9172;49.948;9.208;2023-04-19T08:30:10;10.60;99.90
18091;DHT22;9172;49.948;9.208;2023-04-19T08:32:41;10.70;99.90
18091;DHT22;9172;49.948;9.208;2023-04-19T08:35:10;10.80;99.90
18091;DHT22;9172;49.948;9.208;2023-04-19T08:37:40;10.90;99.90
18091;DHT22;9172;49.948;9.208;2023-04-19T08:40:09;11.00;99.90
18091;DHT22;9172;49.948;9.208;2023-04-19T08:42:39;11.20;99.90
18091;DHT22;9172;49.948;9.208;2023-04-19T08:45:08;11.20;99.90
18091;DHT22;9172;49.948;9.208;2023-04-19T08:47:40;11.30;99.90
18091;DHT22;9172;49.948;9.208;2023-04-19T08:50:09;11.30;99.90
18091;DHT22;9172;49.948;9.208;2023-04-19T08:52:39;11.30;99.90
18091;DHT22;9172;49.948;9.208;2023-04-19T08:55:09;11.30;99.90
18091;DHT22;9172;49.948;9.208;2023-04-19T08:57:38;11.40;99.90
18091;DHT22;9172;49.948;9.208;2023-04-19T09:00:13;11.40;99.90
18091;DHT22;9172;49.948;9.208;2023-04-19T09:02:46;11.40;99.90
18091;DHT22;9172;49.948;9.208;2023-04-19T09:05:16;11.50;99.90
18091;DHT22;9172;49.948;9.208;2023-04-19T09:07:46;11.50;99.90
18091;DHT22;9172;49.948;9.208;2023-04-19T09:31:57;11.90;99.90
18091;DHT22;9172;49.948;9.208;2023-04-19T09:34:26;12.00;99.90
18091;DHT22;9172;49.948;9.208;2023-04-19T09:37:05;12.00;99.90
18091;DHT22;9172;49.948;9.208;2023-04-19T09:43:22;12.20;99.90
18091;DHT22;9172;49.948;9.208;2023-04-19T09:45:51;12.30;99.90
18091;DHT22;9172;49.948;9.208;2023-04-19T09:48:22;12.50;99.90
18091;DHT22;9172;49.948;9.208;2023-04-19T09:50:53;12.50;99.90
18091;DHT22;9172;49.948;9.208;2023-04-19T09:53:22;12.60;99.90
18091;DHT22;9172;49.948;9.208;2023-04-19T09:55:53;12.60;99.90
18091;DHT22;9172;49.948;9.208;2023-04-19T09:58:22;12.70;99.90
18091;DHT22;9172;49.948;9.208;2023-04-19T10:00:51;12.80;99.90
18091;DHT22;9172;49.948;9.208;2023-04-19T10:03:21;13.00;99.90
18091;DHT22;9172;49.948;9.208;2023-04-19T10:05:53;13.10;99.90
18091;DHT22;9172;49.948;9.208;2023-04-19T10:08:22;13.10;99.90
18091;DHT22;9172;49.948;9.208;2023-04-19T10:10:53;13.10;99.90
18091;DHT22;9172;49.948;9.208;2023-04-19T10:13:23;13.30;99.90
18091;DHT22;9172;49.948;9.208;2023-04-19T10:15:53;13.40;99.90
18091;DHT22;9172;49.948;9.208;2023-04-19T10:18:22;13.60;99.90
18091;DHT22;9172;49.948;9.208;2023-04-19T10:20:54;13.70;99.90
18091;DHT22;9172;49.948;9.208;2023-04-19T10:23:24;13.80;99.90
18091;DHT22;9172;49.948;9.208;2023-04-19T10:25:56;13.80;99.90
18091;DHT22;9172;49.948;9.208;2023-04-19T10:28:27;13.80;99.90
18091;DHT22;9172;49.948;9.208;2023-04-19T10:30:59;13.90;99.90
18091;DHT22;9172;49.948;9.208;2023-04-19T10:33:30;13.90;99.90
18091;DHT22;9172;49.948;9.208;2023-04-19T10:36:00;13.80;99.90
18091;DHT22;9172;49.948;9.208;2023-04-19T10:38:37;13.90;99.90
18091;DHT22;9172;49.948;9.208;2023-04-19T10:41:07;14.00;99.90
18091;DHT22;9172;49.948;9.208;2023-04-19T10:43:43;14.10;99.90
18091;DHT22;9172;49.948;9.208;2023-04-19T10:46:16;14.20;99.90
18091;DHT22;9172;49.948;9.208;2023-04-19T10:48:53;13.80;99.90
18091;DHT22;9172;49.948;9.208;2023-04-19T10:51:25;13.70;99.90
18091;DHT22;9172;49.948;9.208;2023-04-19T10:53:58;13.80;99.90
18091;DHT22;9172;49.948;9.208;2023-04-19T10:59:43;14.00;99.90
18091;DHT22;9172;49.948;9.208;2023-04-19T11:02:27;14.10;99.90
18091;DHT22;9172;49.948;9.208;2023-04-19T11:05:01;14.20;99.90
18091;DHT22;9172;49.948;9.208;2023-04-19T11:07:37;14.20;99.90
18091;DHT22;9172;49.948;9.208;2023-04-19T11:10:09;14.00;99.90
18091;DHT22;9172;49.948;9.208;2023-04-19T11:12:43;14.00;99.90
18091;DHT22;9172;49.948;9.208;2023-04-19T11:15:12;13.90;99.90
18091;DHT22;9172;49.948;9.208;2023-04-19T11:17:42;13.60;99.90
18091;DHT22;9172;49.948;9.208;2023-04-19T11:20:13;13.50;99.90
18091;DHT22;9172;49.948;9.208;2023-04-19T11:22:43;13.50;99.90
18091;DHT22;9172;49.948;9.208;2023-04-19T11:25:13;13.50;99.90
18091;DHT22;9172;49.948;9.208;2023-04-19T11:27:43;13.60;99.90
18091;DHT22;9172;49.948;9.208;2023-04-19T11:30:14;13.70;99.90
18091;DHT22;9172;49.948;9.208;2023-04-19T11:32:47;13.90;99.90
18091;DHT22;9172;49.948;9.208;2023-04-19T11:35:18;14.00;99.90
18091;DHT22;9172;49.948;9.208;2023-04-19T11:37:47;14.20;99.90
18091;DHT22;9172;49.948;9.208;2023-04-19T11:40:17;14.30;99.90
18091;DHT22;9172;49.948;9.208;2023-04-19T11:42:46;14.40;99.90
18091;DHT22;9172;49.948;9.208;2023-04-19T11:45:25;14.50;99.90
18091;DHT22;9172;49.948;9.208;2023-04-19T11:47:56;14.50;99.60
18091;DHT22;9172;49.948;9.208;2023-04-19T11:50:36;14.60;99.60
18091;DHT22;9172;49.948;9.208;2023-04-19T11:53:13;14.60;99.70
18091;DHT22;9172;49.948;9.208;2023-04-19T11:55:44;14.60;98.80
18091;DHT22;9172;49.948;9.208;2023-04-19T11:58:24;14.60;98.40
18091;DHT22;9172;49.948;9.208;2023-04-19T12:00:55;14.60;98.60
18091;DHT22;9172;49.948;9.208;2023-04-19T12:03:24;14.30;98.20
18091;DHT22;9172;49.948;9.208;2023-04-19T12:05:55;13.90;99.30
18091;DHT22;9172;49.948;9.208;2023-04-19T12:08:34;13.80;99.50
18091;DHT22;9172;49.948;9.208;2023-04-19T12:11:04;13.80;98.70
18091;DHT22;9172;49.948;9.208;2023-04-19T12:13:34;13.80;99.90
18091;DHT22;9172;49.948;9.208;2023-04-19T12:16:05;13.90;99.60
18091;DHT22;9172;49.948;9.208;2023-04-19T12:18:47;13.90;98.60
18091;DHT22;9172;49.948;9.208;2023-04-19T12:21:26;13.80;98.00
18091;DHT22;9172;49.948;9.208;2023-04-19T12:23:56;13.70;97.90
18091;DHT22;9172;49.948;9.208;2023-04-19T12:26:26;13.60;97.80
18091;DHT22;9172;49.948;9.208;2023-04-19T12:28:56;13.50;97.60
18091;DHT22;9172;49.948;9.208;2023-04-19T12:31:25;13.50;97.70
18091;DHT22;9172;49.948;9.208;2023-04-19T12:33:54;13.50;96.80
18091;DHT22;9172;49.948;9.208;2023-04-19T12:36:23;13.50;96.90
18091;DHT22;9172;49.948;9.208;2023-04-19T12:38:53;13.60;97.10
18091;DHT22;9172;49.948;9.208;2023-04-19T12:41:24;13.60;96.50
18091;DHT22;9172;49.948;9.208;2023-04-19T12:43:53;13.70;96.30
18091;DHT22;9172;49.948;9.208;2023-04-19T12:46:22;13.70;94.40
18091;DHT22;9172;49.948;9.208;2023-04-19T12:48:51;13.60;94.70
18091;DHT22;9172;49.948;9.208;2023-04-19T12:51:20;13.70;95.90
18091;DHT22;9172;49.948;9.208;2023-04-19T12:53:48;13.60;94.40
18091;DHT22;9172;49.948;9.208;2023-04-19T12:56:18;13.50;93.70
18091;DHT22;9172;49.948;9.208;2023-04-19T12:58:47;13.50;93.70
18091;DHT22;9172;49.948;9.208;2023-04-19T13:01:16;13.60;94.40
18091;DHT22;9172;49.948;9.208;2023-04-19T13:03:46;13.70;94.30
18091;DHT22;9172;49.948;9.208;2023-04-19T13:06:16;13.70;93.80
18091;DHT22;9172;49.948;9.208;2023-04-19T13:08:45;13.80;93.20
18091;DHT22;9172;49.948;9.208;2023-04-19T13:11:14;13.80;94.00
18091;DHT22;9172;49.948;9.208;2023-04-19T13:13:47;13.80;91.90
18091;DHT22;9172;49.948;9.208;2023-04-19T13:16:17;13.70;91.50
18091;DHT22;9172;49.948;9.208;2023-04-19T13:18:46;13.60;91.60
18091;DHT22;9172;49.948;9.208;2023-04-19T13:21:15;13.70;91.40
18091;DHT22;9172;49.948;9.208;2023-04-19T13:23:44;13.70;90.60
18091;DHT22;9172;49.948;9.208;2023-04-19T13:26:15;13.70;89.50
18091;DHT22;9172;49.948;9.208;2023-04-19T13:28:44;13.70;89.30
18091;DHT22;9172;49.948;9.208;2023-04-19T13:31:14;13.70;90.10
18091;DHT22;9172;49.948;9.208;2023-04-19T13:33:44;13.70;88.80
18091;DHT22;9172;49.948;9.208;2023-04-19T13:36:15;13.70;89.00
18091;DHT22;9172;49.948;9.208;2023-04-19T13:38:44;13.80;90.30
18091;DHT22;9172;49.948;9.208;2023-04-19T13:41:13;13.90;87.20
18091;DHT22;9172;49.948;9.208;2023-04-19T13:43:42;13.90;85.20
18091;DHT22;9172;49.948;9.208;2023-04-19T13:46:11;14.00;88.50
18091;DHT22;9172;49.948;9.208;2023-04-19T13:48:40;13.90;84.00
18091;DHT22;9172;49.948;9.208;2023-04-19T13:51:08;13.90;84.10
18091;DHT22;9172;49.948;9.208;2023-04-19T13:53:38;13.90;85.30
18091;DHT22;9172;49.948;9.208;2023-04-19T13:56:07;13.90;88.00
18091;DHT22;9172;49.948;9.208;2023-04-19T13:58:37;14.00;86.10
18091;DHT22;9172;49.948;9.208;2023-04-19T14:01:06;14.10;86.20
18091;DHT22;9172;49.948;9.208;2023-04-19T14:03:35;13.90;83.00
18091;DHT22;9172;49.948;9.208;2023-04-19T14:06:04;13.90;84.40
18091;DHT22;9172;49.948;9.208;2023-04-19T14:08:33;13.90;86.50
18091;DHT22;9172;49.948;9.208;2023-04-19T14:11:03;13.90;84.20
18091;DHT22;9172;49.948;9.208;2023-04-19T14:13:32;13.90;81.70
18091;DHT22;9172;49.948;9.208;2023-04-19T14:16:03;13.80;81.70
18091;DHT22;9172;49.948;9.208;2023-04-19T14:18:33;13.80;83.90
18091;DHT22;9172;49.948;9.208;2023-04-19T14:21:02;13.80;84.80
18091;DHT22;9172;49.948;9.208;2023-04-19T14:23:32;13.80;82.40
18091;DHT22;9172;49.948;9.208;2023-04-19T14:26:01;13.70;84.80
18091;DHT22;9172;49.948;9.208;2023-04-19T14:28:30;13.70;84.50
18091;DHT22;9172;49.948;9.208;2023-04-19T14:30:59;13.70;84.20
18091;DHT22;9172;49.948;9.208;2023-04-19T14:33:27;13.70;86.10
18091;DHT22;9172;49.948;9.208;2023-04-19T14:35:57;13.70;85.40
18091;DHT22;9172;49.948;9.208;2023-04-19T14:38:26;13.80;83.30
18091;DHT22;9172;49.948;9.208;2023-04-19T14:40:55;13.70;83.30
18091;DHT22;9172;49.948;9.208;2023-04-19T14:43:24;13.60;84.80
18091;DHT22;9172;49.948;9.208;2023-04-19T14:45:54;13.50;84.60
18091;DHT22;9172;49.948;9.208;2023-04-19T14:48:23;13.50;84.30
18091;DHT22;9172;49.948;9.208;2023-04-19T14:50:51;13.60;84.60
18091;DHT22;9172;49.948;9.208;2023-04-19T14:53:21;13.60;85.10
18091;DHT22;9172;49.948;9.208;2023-04-19T14:55:49;13.60;84.80
18091;DHT22;9172;49.948;9.208;2023-04-19T14:58:18;13.60;87.30
18091;DHT22;9172;49.948;9.208;2023-04-19T15:00:47;13.70;87.20
18091;DHT22;9172;49.948;9.208;2023-04-19T15:03:16;13.70;86.90
18091;DHT22;9172;49.948;9.208;2023-04-19T15:05:45;13.70;86.60
18091;DHT22;9172;49.948;9.208;2023-04-19T15:08:13;13.70;89.80
18091;DHT22;9172;49.948;9.208;2023-04-19T15:10:44;13.80;84.50
18091;DHT22;9172;49.948;9.208;2023-04-19T15:13:13;13.70;86.80
18091;DHT22;9172;49.948;9.208;2023-04-19T15:15:41;13.60;86.00
18091;DHT22;9172;49.948;9.208;2023-04-19T15:18:10;13.60;87.00
18091;DHT22;9172;49.948;9.208;2023-04-19T15:20:41;13.50;87.00
18091;DHT22;9172;49.948;9.208;2023-04-19T15:23:10;13.50;87.40
18091;DHT22;9172;49.948;9.208;2023-04-19T15:25:39;13.50;88.50
18091;DHT22;9172;49.948;9.208;2023-04-19T15:28:09;13.50;89.80
18091;DHT22;9172;49.948;9.208;2023-04-19T15:30:39;13.50;86.60
18091;DHT22;9172;49.948;9.208;2023-04-19T15:33:07;13.20;85.90
18091;DHT22;9172;49.948;9.208;2023-04-19T15:35:36;13.00;88.50
18091;DHT22;9172;49.948;9.208;2023-04-19T15:38:06;13.00;89.00
18091;DHT22;9172;49.948;9.208;2023-04-19T15:40:35;12.90;88.50
18091;DHT22;9172;49.948;9.208;2023-04-19T15:43:04;12.80;89.90
18091;DHT22;9172;49.948;9.208;2023-04-19T15:45:33;12.80;90.00
18091;DHT22;9172;49.948;9.208;2023-04-19T15:48:03;12.90;90.30
18091;DHT22;9172;49.948;9.208;2023-04-19T15:50:34;12.90;90.30
18091;DHT22;9172;49.948;9.208;2023-04-19T15:53:03;12.90;91.10
18091;DHT22;9172;49.948;9.208;2023-04-19T15:55:33;13.00;91.00
18091;DHT22;9172;49.948;9.208;2023-04-19T15:58:02;12.70;89.50
18091;DHT22;9172;49.948;9.208;2023-04-19T16:00:31;12.70;90.10
18091;DHT22;9172;49.948;9.208;2023-04-19T16:03:02;12.60;88.80
18091;DHT22;9172;49.948;9.208;2023-04-19T16:05:31;12.70;90.50
18091;DHT22;9172;49.948;9.208;2023-04-19T16:08:03;12.70;90.40
18091;DHT22;9172;49.948;9.208;2023-04-19T16:10:32;12.60;88.70
18091;DHT22;9172;49.948;9.208;2023-04-19T16:13:02;12.60;90.10
18091;DHT22;9172;49.948;9.208;2023-04-19T16:15:32;12.70;91.60
18091;DHT22;9172;49.948;9.208;2023-04-19T16:18:02;12.50;88.70
18091;DHT22;9172;49.948;9.208;2023-04-19T16:20:31;12.50;90.40
18091;DHT22;9172;49.948;9.208;2023-04-19T16:22:59;12.50;90.80
18091;DHT22;9172;49.948;9.208;2023-04-19T16:25:30;12.50;90.70
18091;DHT22;9172;49.948;9.208;2023-04-19T16:27:59;12.30;90.20
18091;DHT22;9172;49.948;9.208;2023-04-19T16:30:28;12.20;90.60
18091;DHT22;9172;49.948;9.208;2023-04-19T16:32:58;12.10;90.60
18091;DHT22;9172;49.948;9.208;2023-04-19T16:35:27;12.00;90.20